Time;durP1;ratioP1;P1;durP2;ratioP2;P2;SDS_P1;SDS_P2;PMS_P1;PMS_P2;Temp;Humidity;BMP_temperature;BMP_pressure;BME280_temperature;BME280_humidity;BME280_pressure;Samples;Min_cycle;Max_cycle;Signal;HPM_P1;HPM_P2
2023/05/20 00:00:52;;;;;;;;;;;11.30;99.90;;;;;;5033720;28;19928;-66
2023/05/20 00:03:19;;;;;;;;;;;11.30;99.90;;;;;;5033753;28;19983;-66
2023/05/20 00:05:45;;;;;;;;;;;11.30;99.90;;;;;;5033436;28;19927;-65
2023/05/20 00:08:10;;;;;;;;;;;11.20;99.90;;;;;;5033045;28;20011;-65
2023/05/20 00:10:36;;;;;;;;;;;11.10;99.90;;;;;;5033640;28;20373;-66
2023/05/20 00:13:01;;;;;;;;;;;11.10;99.90;;;;;;5033805;28;19921;-65
2023/05/20 00:15:27;;;;;;;;;;;11.10;99.90;;;;;;5039417;28;19928;-66
2023/05/20 00:17:53;;;;;;;;;;;11.00;99.90;;;;;;5032843;28;19933;-65
2023/05/20 00:20:19;;;;;;;;;;;11.00;99.90;;;;;;5031470;28;19921;-65
2023/05/20 00:22:45;;;;;;;;;;;11.00;99.90;;;;;;5033712;28;19921;-65
2023/05/20 00:25:13;;;;;;;;;;;10.90;99.90;;;;;;5041880;28;19921;-66
2023/05/20 00:27:42;;;;;;;;;;;10.90;99.90;;;;;;5029886;28;19929;-65
2023/05/20 00:30:07;;;;;;;;;;;10.90;99.90;;;;;;5034721;28;20310;-65
2023/05/20 00:32:33;;;;;;;;;;;10.90;99.90;;;;;;5032507;28;19932;-64
2023/05/20 00:34:59;;;;;;;;;;;10.80;99.90;;;;;;5033551;28;19969;-66
2023/05/20 00:37:25;;;;;;;;;;;10.90;99.90;;;;;;5031138;28;19925;-65
2023/05/20 00:39:50;;;;;;;;;;;10.90;99.90;;;;;;5032594;28;19921;-66
2023/05/20 00:42:19;;;;;;;;;;;11.00;99.90;;;;;;5032654;28;19940;-66
2023/05/20 00:44:45;;;;;;;;;;;11.00;99.90;;;;;;5034762;28;19925;-65
2023/05/20 00:47:10;;;;;;;;;;;11.10;99.90;;;;;;5038508;28;20016;-66
2023/05/20 00:49:36;;;;;;;;;;;11.10;99.90;;;;;;5032326;28;19948;-65
2023/05/20 00:52:01;;;;;;;;;;;11.10;99.90;;;;;;5031401;28;19921;-65
2023/05/20 00:54:27;;;;;;;;;;;11.10;99.90;;;;;;5032122;28;19921;-66
2023/05/20 00:56:52;;;;;;;;;;;11.20;99.90;;;;;;5032231;28;20021;-66
2023/05/20 00:59:18;;;;;;;;;;;11.20;99.90;;;;;;5032439;28;19937;-65
2023/05/20 01:01:43;;;;;;;;;;;11.20;99.90;;;;;;5035696;28;19983;-66
2023/05/20 01:04:09;;;;;;;;;;;11.30;99.90;;;;;;5033650;28;19921;-66
2023/05/20 01:06:36;;;;;;;;;;;11.30;99.90;;;;;;5032267;28;19921;-65
2023/05/20 01:09:02;;;;;;;;;;;11.30;99.90;;;;;;5030103;28;19972;-64
2023/05/20 01:11:32;;;;;;;;;;;11.30;99.90;;;;;;5030104;28;19959;-65
2023/05/20 01:14:02;;;;;;;;;;;11.30;99.90;;;;;;5032043;28;19975;-66
2023/05/20 01:16:29;;;;;;;;;;;11.30;99.90;;;;;;5032604;28;19930;-66
2023/05/20 01:18:56;;;;;;;;;;;11.30;99.90;;;;;;5030186;28;19968;-63
2023/05/20 01:21:22;;;;;;;;;;;11.30;99.90;;;;;;5032990;28;20365;-66
2023/05/20 01:23:47;;;;;;;;;;;11.30;99.90;;;;;;5032243;28;19981;-65
2023/05/20 01:26:13;;;;;;;;;;;11.30;99.90;;;;;;5046929;28;20294;-65
2023/05/20 01:28:40;;;;;;;;;;;11.30;99.90;;;;;;5035744;28;19979;-63
2023/05/20 01:31:09;;;;;;;;;;;11.20;99.90;;;;;;5030704;28;19979;-66
2023/05/20 01:33:36;;;;;;;;;;;11.20;99.90;;;;;;5031571;28;19995;-64
2023/05/20 01:36:02;;;;;;;;;;;11.20;99.90;;;;;;5030473;28;19921;-65
2023/05/20 01:38:27;;;;;;;;;;;11.20;99.90;;;;;;5030116;28;20044;-64
2023/05/20 01:40:53;;;;;;;;;;;11.20;99.90;;;;;;5031939;28;19975;-65
2023/05/20 01:43:20;;;;;;;;;;;11.20;99.90;;;;;;5029304;28;19952;-65
2023/05/20 01:45:45;;;;;;;;;;;11.20;99.90;;;;;;5031780;28;19925;-65
2023/05/20 01:48:11;;;;;;;;;;;11.20;99.90;;;;;;5031417;28;19991;-65
2023/05/20 01:50:37;;;;;;;;;;;11.20;99.90;;;;;;5030418;28;19929;-66
2023/05/20 01:53:02;;;;;;;;;;;11.20;99.90;;;;;;5035058;28;19925;-66
2023/05/20 01:55:28;;;;;;;;;;;11.30;99.90;;;;;;5031849;28;19960;-65
2023/05/20 01:57:54;;;;;;;;;;;11.30;99.90;;;;;;5031016;28;20280;-64
2023/05/20 02:00:19;;;;;;;;;;;11.30;99.90;;;;;;5032419;28;19973;-66
2023/05/20 02:02:45;;;;;;;;;;;11.30;99.90;;;;;;5029013;28;20367;-66
2023/05/20 02:05:11;;;;;;;;;;;11.30;99.90;;;;;;5031350;28;20612;-65
2023/05/20 02:07:36;;;;;;;;;;;11.30;99.90;;;;;;5028405;28;19929;-65
2023/05/20 02:10:02;;;;;;;;;;;11.30;99.90;;;;;;5036607;28;19928;-65
2023/05/20 02:12:27;;;;;;;;;;;11.30;99.90;;;;;;5031190;28;19971;-66
2023/05/20 02:14:53;;;;;;;;;;;11.20;99.90;;;;;;5031902;28;19925;-65
2023/05/20 02:17:19;;;;;;;;;;;11.30;99.90;;;;;;5029335;28;19925;-66
2023/05/20 02:19:45;;;;;;;;;;;11.20;99.90;;;;;;5030799;28;19921;-65
2023/05/20 02:22:11;;;;;;;;;;;11.30;99.90;;;;;;5031526;28;19928;-66
2023/05/20 02:24:36;;;;;;;;;;;11.30;99.90;;;;;;5034972;28;19925;-65
2023/05/20 02:27:03;;;;;;;;;;;11.20;99.90;;;;;;5035956;28;19921;-66
2023/05/20 02:29:29;;;;;;;;;;;11.30;99.90;;;;;;5035202;28;20030;-65
2023/05/20 02:31:54;;;;;;;;;;;11.30;99.90;;;;;;5033228;28;20398;-63
2023/05/20 02:34:20;;;;;;;;;;;11.30;99.90;;;;;;5033335;28;19921;-65
2023/05/20 02:36:45;;;;;;;;;;;11.30;99.90;;;;;;5034837;28;19932;-66
2023/05/20 02:39:11;;;;;;;;;;;11.30;99.90;;;;;;5035159;28;19921;-65
2023/05/20 02:41:37;;;;;;;;;;;11.30;99.90;;;;;;5033412;28;19925;-66
2023/05/20 02:44:02;;;;;;;;;;;11.20;99.90;;;;;;5044564;28;20312;-66
2023/05/20 02:46:28;;;;;;;;;;;11.20;99.90;;;;;;5035032;28;19999;-65
2023/05/20 02:48:53;;;;;;;;;;;11.20;99.90;;;;;;5035005;28;19921;-64
2023/05/20 02:51:18;;;;;;;;;;;11.20;99.90;;;;;;5037689;28;19921;-65
2023/05/20 02:53:45;;;;;;;;;;;11.20;99.90;;;;;;5034529;28;20023;-66
2023/05/20 02:56:10;;;;;;;;;;;11.30;99.90;;;;;;5034755;28;19928;-65
2023/05/20 02:58:36;;;;;;;;;;;11.20;99.90;;;;;;5030964;28;19925;-66
2023/05/20 03:01:02;;;;;;;;;;;11.30;99.90;;;;;;5034296;28;19996;-65
2023/05/20 03:03:27;;;;;;;;;;;11.30;99.90;;;;;;5033966;28;19948;-66
2023/05/20 03:05:53;;;;;;;;;;;11.30;99.90;;;;;;5034899;28;20387;-65
2023/05/20 03:08:19;;;;;;;;;;;11.20;99.90;;;;;;5032042;28;19921;-66
2023/05/20 03:10:45;;;;;;;;;;;11.30;99.90;;;;;;5033868;28;19951;-66
2023/05/20 03:13:10;;;;;;;;;;;11.20;99.90;;;;;;5034321;28;19974;-65
2023/05/20 03:15:36;;;;;;;;;;;11.20;99.90;;;;;;5040165;28;19924;-66
2023/05/20 03:18:02;;;;;;;;;;;11.20;99.90;;;;;;5040909;28;19986;-65
2023/05/20 03:20:28;;;;;;;;;;;11.20;99.90;;;;;;5033723;28;19922;-65
2023/05/20 03:22:54;;;;;;;;;;;11.20;99.90;;;;;;5032764;28;20011;-66
2023/05/20 03:25:21;;;;;;;;;;;11.10;99.90;;;;;;5041815;28;20036;-65
2023/05/20 03:27:46;;;;;;;;;;;11.00;99.90;;;;;;5033908;28;19983;-66
2023/05/20 03:30:12;;;;;;;;;;;11.00;99.90;;;;;;5034881;28;20011;-66
2023/05/20 03:32:37;;;;;;;;;;;11.00;99.90;;;;;;5032347;28;19921;-65
2023/05/20 03:35:03;;;;;;;;;;;11.00;99.90;;;;;;5033364;28;19928;-65
2023/05/20 03:37:28;;;;;;;;;;;10.90;99.90;;;;;;5034048;28;19960;-66
2023/05/20 03:39:54;;;;;;;;;;;10.90;99.90;;;;;;5031755;28;19921;-66
2023/05/20 03:42:19;;;;;;;;;;;10.90;99.90;;;;;;5033536;28;19921;-65
2023/05/20 03:44:45;;;;;;;;;;;10.90;99.90;;;;;;5033849;28;20055;-64
2023/05/20 03:47:10;;;;;;;;;;;10.90;99.90;;;;;;5034181;28;19921;-66
2023/05/20 03:49:36;;;;;;;;;;;10.90;99.90;;;;;;5036383;28;19925;-65
2023/05/20 03:52:02;;;;;;;;;;;10.90;99.90;;;;;;5034220;28;19960;-65
2023/05/20 03:54:30;;;;;;;;;;;10.90;99.90;;;;;;5032261;28;20413;-65
2023/05/20 03:56:55;;;;;;;;;;;10.90;99.90;;;;;;5032576;28;19932;-65
2023/05/20 03:59:21;;;;;;;;;;;10.80;99.90;;;;;;5030750;28;19921;-66
2023/05/20 04:01:47;;;;;;;;;;;10.80;99.90;;;;;;5033301;28;20000;-65
2023/05/20 04:04:12;;;;;;;;;;;10.80;99.90;;;;;;5031666;28;19921;-63
2023/05/20 04:06:39;;;;;;;;;;;10.80;99.90;;;;;;5038430;28;19925;-65
2023/05/20 04:09:05;;;;;;;;;;;10.70;99.90;;;;;;5034645;28;20359;-66
2023/05/20 04:11:30;;;;;;;;;;;10.70;99.90;;;;;;5034245;28;20012;-65
2023/05/20 04:13:57;;;;;;;;;;;10.70;99.90;;;;;;5035931;28;19980;-64
2023/05/20 04:16:23;;;;;;;;;;;10.70;99.90;;;;;;5032194;28;19975;-65
2023/05/20 04:18:49;;;;;;;;;;;10.70;99.90;;;;;;5033091;28;19921;-66
2023/05/20 04:21:15;;;;;;;;;;;10.70;99.90;;;;;;5029550;28;19939;-65
2023/05/20 04:23:40;;;;;;;;;;;10.70;99.90;;;;;;5040570;28;19925;-65
2023/05/20 04:26:06;;;;;;;;;;;10.70;99.90;;;;;;5040501;28;19921;-65
2023/05/20 04:28:31;;;;;;;;;;;10.70;99.90;;;;;;5033393;28;20368;-65
2023/05/20 04:31:03;;;;;;;;;;;10.70;99.90;;;;;;5035311;28;19925;-65
2023/05/20 04:33:29;;;;;;;;;;;10.70;99.90;;;;;;5032960;28;19928;-65
2023/05/20 04:35:57;;;;;;;;;;;10.70;99.90;;;;;;5031066;28;20146;-68
2023/05/20 04:38:28;;;;;;;;;;;10.70;99.90;;;;;;5030372;28;19929;-65
2023/05/20 04:41:00;;;;;;;;;;;10.70;99.90;;;;;;5039315;28;20379;-65
2023/05/20 04:43:28;;;;;;;;;;;10.80;99.90;;;;;;5034347;28;19921;-66
2023/05/20 04:45:54;;;;;;;;;;;10.80;99.90;;;;;;5028735;28;20328;-67
2023/05/20 04:48:21;;;;;;;;;;;10.90;99.90;;;;;;5034944;28;19929;-68
2023/05/20 04:50:47;;;;;;;;;;;10.90;99.90;;;;;;5056331;28;20382;-68
2023/05/20 04:53:13;;;;;;;;;;;11.00;99.90;;;;;;5033550;28;20005;-65
2023/05/20 04:55:39;;;;;;;;;;;11.10;99.90;;;;;;5027380;28;20500;-65
2023/05/20 04:58:06;;;;;;;;;;;11.10;99.90;;;;;;5026571;28;19943;-65
2023/05/20 05:00:32;;;;;;;;;;;11.20;99.90;;;;;;5027485;28;19924;-68
2023/05/20 05:02:57;;;;;;;;;;;11.20;99.90;;;;;;5033437;28;20051;-65
2023/05/20 05:05:23;;;;;;;;;;;11.30;99.90;;;;;;5034674;28;19920;-66
2023/05/20 05:07:48;;;;;;;;;;;11.30;99.90;;;;;;5032392;28;19925;-65
2023/05/20 05:10:14;;;;;;;;;;;11.40;99.90;;;;;;5035800;28;20658;-66
2023/05/20 05:12:40;;;;;;;;;;;11.40;99.90;;;;;;5035842;28;20042;-67
2023/05/20 05:15:06;;;;;;;;;;;11.50;99.90;;;;;;5033633;28;20379;-65
2023/05/20 05:17:31;;;;;;;;;;;11.60;99.90;;;;;;5029876;28;19928;-65
2023/05/20 05:19:57;;;;;;;;;;;11.70;99.90;;;;;;5035399;28;20031;-65
2023/05/20 05:22:22;;;;;;;;;;;11.70;99.90;;;;;;5035363;28;19928;-67
2023/05/20 05:24:47;;;;;;;;;;;11.70;99.90;;;;;;5030989;28;20499;-66
2023/05/20 05:27:13;;;;;;;;;;;11.80;99.90;;;;;;5032175;28;20004;-66
2023/05/20 05:29:38;;;;;;;;;;;11.90;99.90;;;;;;5010764;28;19925;-69
2023/05/20 05:32:04;;;;;;;;;;;11.90;99.90;;;;;;5032666;28;19925;-69
2023/05/20 05:34:29;;;;;;;;;;;12.00;99.90;;;;;;5023517;28;19928;-66
2023/05/20 05:36:58;;;;;;;;;;;12.00;99.90;;;;;;5033687;28;20367;-68
2023/05/20 05:39:23;;;;;;;;;;;12.10;99.90;;;;;;5033822;28;19970;-67
2023/05/20 05:41:48;;;;;;;;;;;12.10;99.90;;;;;;5026195;28;19929;-69
2023/05/20 05:44:14;;;;;;;;;;;12.20;99.90;;;;;;5026913;28;20535;-67
2023/05/20 05:46:40;;;;;;;;;;;12.20;99.90;;;;;;5028558;28;19929;-66
2023/05/20 05:49:05;;;;;;;;;;;12.30;99.90;;;;;;5034625;28;20299;-66
2023/05/20 05:51:31;;;;;;;;;;;12.30;99.90;;;;;;5035456;28;19931;-66
2023/05/20 05:53:56;;;;;;;;;;;12.40;99.90;;;;;;5032504;28;20287;-66
2023/05/20 05:56:22;;;;;;;;;;;12.50;99.90;;;;;;5034460;28;20417;-69
2023/05/20 05:58:47;;;;;;;;;;;12.60;99.90;;;;;;5034529;28;19929;-67
2023/05/20 06:01:13;;;;;;;;;;;12.60;99.90;;;;;;5026013;28;20958;-66
2023/05/20 06:03:38;;;;;;;;;;;12.70;99.90;;;;;;5031790;28;20358;-67
2023/05/20 06:06:04;;;;;;;;;;;12.70;99.90;;;;;;5035631;28;20445;-68
2023/05/20 06:08:29;;;;;;;;;;;12.70;99.90;;;;;;5033379;28;20015;-66
2023/05/20 06:10:55;;;;;;;;;;;12.80;99.90;;;;;;5048200;28;19931;-68
2023/05/20 06:13:20;;;;;;;;;;;12.90;99.90;;;;;;5020118;28;19975;-65
2023/05/20 06:15:47;;;;;;;;;;;13.00;99.90;;;;;;5025607;28;20406;-66
2023/05/20 06:18:13;;;;;;;;;;;13.10;99.90;;;;;;5019187;28;19929;-66
2023/05/20 06:20:38;;;;;;;;;;;13.10;99.90;;;;;;5017576;28;19941;-66
2023/05/20 06:23:04;;;;;;;;;;;13.10;99.90;;;;;;5021901;28;19948;-69
2023/05/20 06:25:29;;;;;;;;;;;13.20;99.90;;;;;;5028005;28;19924;-66
2023/05/20 06:27:55;;;;;;;;;;;13.30;99.90;;;;;;5032200;28;19924;-67
2023/05/20 06:30:21;;;;;;;;;;;13.40;99.90;;;;;;5031375;28;19940;-65
2023/05/20 06:32:46;;;;;;;;;;;13.40;99.90;;;;;;5037190;28;20027;-68
2023/05/20 06:35:12;;;;;;;;;;;13.50;99.90;;;;;;5031182;28;19932;-69
2023/05/20 06:37:37;;;;;;;;;;;13.60;99.90;;;;;;5029920;28;19983;-65
2023/05/20 06:40:03;;;;;;;;;;;13.70;99.90;;;;;;5051356;28;19920;-66
2023/05/20 06:42:28;;;;;;;;;;;13.80;99.90;;;;;;5050941;28;20284;-66
2023/05/20 06:44:54;;;;;;;;;;;13.80;99.90;;;;;;5030459;28;19961;-65
2023/05/20 06:47:20;;;;;;;;;;;13.80;99.90;;;;;;5024060;28;19925;-69
2023/05/20 06:49:45;;;;;;;;;;;13.90;99.90;;;;;;5030745;28;19921;-66
2023/05/20 06:52:11;;;;;;;;;;;13.90;99.90;;;;;;5035491;28;19921;-64
2023/05/20 06:54:40;;;;;;;;;;;14.00;99.90;;;;;;5037331;28;20307;-65
2023/05/20 06:57:06;;;;;;;;;;;14.10;99.90;;;;;;5030846;28;20409;-68
2023/05/20 06:59:31;;;;;;;;;;;14.10;99.90;;;;;;5027711;28;19921;-68
2023/05/20 07:01:57;;;;;;;;;;;14.10;99.90;;;;;;5030285;28;19925;-68
2023/05/20 07:04:22;;;;;;;;;;;14.20;99.90;;;;;;5031524;28;19931;-66
2023/05/20 07:06:48;;;;;;;;;;;14.20;99.90;;;;;;5029640;28;24718;-66
2023/05/20 07:09:13;;;;;;;;;;;14.30;99.90;;;;;;5032401;28;19928;-67
2023/05/20 07:11:39;;;;;;;;;;;14.40;99.90;;;;;;5036503;28;19976;-69
2023/05/20 07:14:04;;;;;;;;;;;14.50;99.90;;;;;;5034981;28;19968;-69
2023/05/20 07:16:31;;;;;;;;;;;14.50;99.90;;;;;;5032846;28;20058;-71
2023/05/20 07:18:57;;;;;;;;;;;14.60;99.90;;;;;;5030147;28;19925;-70
2023/05/20 07:21:22;;;;;;;;;;;14.60;99.90;;;;;;5031778;28;19925;-69
2023/05/20 07:23:48;;;;;;;;;;;14.70;99.90;;;;;;5029530;28;19925;-70
2023/05/20 07:26:13;;;;;;;;;;;14.80;99.90;;;;;;5023942;28;20307;-70
2023/05/20 07:28:39;;;;;;;;;;;14.80;99.90;;;;;;5035290;28;20038;-70
2023/05/20 07:31:04;;;;;;;;;;;14.80;99.90;;;;;;5023068;28;19921;-71
2023/05/20 07:33:30;;;;;;;;;;;14.90;99.90;;;;;;5030951;28;19929;-70
2023/05/20 07:35:56;;;;;;;;;;;15.00;99.90;;;;;;5032088;28;19928;-71
2023/05/20 07:38:21;;;;;;;;;;;15.10;99.90;;;;;;5031978;28;20379;-70
2023/05/20 07:40:46;;;;;;;;;;;15.10;99.90;;;;;;5034238;28;19921;-70
2023/05/20 07:43:12;;;;;;;;;;;15.10;99.90;;;;;;5042468;28;19921;-70
2023/05/20 07:45:37;;;;;;;;;;;15.30;99.90;;;;;;5032480;28;19925;-70
2023/05/20 07:48:03;;;;;;;;;;;15.40;99.90;;;;;;5033693;28;19928;-70
2023/05/20 07:50:29;;;;;;;;;;;15.50;99.90;;;;;;5031251;28;20383;-70
2023/05/20 07:52:55;;;;;;;;;;;15.60;99.90;;;;;;5033599;28;19921;-70
2023/05/20 07:55:20;;;;;;;;;;;15.70;99.90;;;;;;5031258;28;19975;-70
2023/05/20 07:57:46;;;;;;;;;;;15.70;99.90;;;;;;5031147;28;19925;-70
2023/05/20 08:00:12;;;;;;;;;;;15.70;99.90;;;;;;5031882;28;19921;-70
2023/05/20 08:02:37;;;;;;;;;;;15.80;99.90;;;;;;5030878;28;19932;-70
2023/05/20 08:05:03;;;;;;;;;;;15.80;99.90;;;;;;5036717;28;19925;-70
2023/05/20 08:07:29;;;;;;;;;;;16.00;99.90;;;;;;5028392;28;20549;-70
2023/05/20 08:09:55;;;;;;;;;;;16.10;99.90;;;;;;5042044;28;20012;-70
2023/05/20 08:12:21;;;;;;;;;;;16.10;99.90;;;;;;5050025;28;20303;-71
2023/05/20 08:14:46;;;;;;;;;;;16.20;99.90;;;;;;5059840;28;20395;-71
2023/05/20 08:17:12;;;;;;;;;;;16.30;99.90;;;;;;5030645;28;19933;-71
2023/05/20 08:19:37;;;;;;;;;;;16.40;99.90;;;;;;5029857;28;20657;-71
2023/05/20 08:22:03;;;;;;;;;;;16.50;99.90;;;;;;5031439;28;19921;-71
2023/05/20 08:24:28;;;;;;;;;;;16.50;99.90;;;;;;5024666;28;20601;-71
2023/05/20 08:27:04;;;;;;;;;;;16.60;99.90;;;;;;5028208;28;19940;-70
2023/05/20 08:29:29;;;;;;;;;;;16.60;99.90;;;;;;5052447;28;19943;-71
2023/05/20 08:31:55;;;;;;;;;;;16.70;99.90;;;;;;5038605;28;20291;-71
2023/05/20 08:34:21;;;;;;;;;;;16.80;99.90;;;;;;5048497;28;19925;-71
2023/05/20 08:36:46;;;;;;;;;;;16.80;99.90;;;;;;5031558;28;19967;-70
2023/05/20 08:39:12;;;;;;;;;;;16.90;99.70;;;;;;5030025;28;19928;-71
2023/05/20 08:41:38;;;;;;;;;;;16.90;99.60;;;;;;5030921;28;19924;-71
2023/05/20 08:44:04;;;;;;;;;;;16.90;99.70;;;;;;5034515;28;19975;-70
2023/05/20 08:46:30;;;;;;;;;;;17.00;98.60;;;;;;5033128;28;19924;-71
2023/05/20 08:48:55;;;;;;;;;;;17.10;98.50;;;;;;5031533;28;19925;-71
2023/05/20 08:51:22;;;;;;;;;;;17.10;98.00;;;;;;5033203;28;19928;-70
2023/05/20 08:53:48;;;;;;;;;;;17.20;98.70;;;;;;5028123;28;20003;-71
2023/05/20 08:56:15;;;;;;;;;;;17.30;98.40;;;;;;5033298;28;20019;-71
2023/05/20 08:58:41;;;;;;;;;;;17.30;97.60;;;;;;5030540;28;19951;-71
2023/05/20 09:01:07;;;;;;;;;;;17.40;97.70;;;;;;5022428;28;19928;-70
2023/05/20 09:03:33;;;;;;;;;;;17.50;97.60;;;;;;5029888;28;19925;-70
2023/05/20 09:06:05;;;;;;;;;;;17.60;97.80;;;;;;5034576;28;20326;-71
2023/05/20 09:08:31;;;;;;;;;;;17.60;96.70;;;;;;5034712;28;19925;-71
2023/05/20 09:10:57;;;;;;;;;;;17.70;97.00;;;;;;5030582;28;19925;-71
2023/05/20 09:13:22;;;;;;;;;;;17.70;96.90;;;;;;5022997;28;19935;-71
2023/05/20 09:15:48;;;;;;;;;;;17.70;97.40;;;;;;5031428;28;19924;-71
2023/05/20 09:18:13;;;;;;;;;;;17.80;96.60;;;;;;5043171;28;19925;-71
2023/05/20 09:20:40;;;;;;;;;;;17.80;96.50;;;;;;5038559;28;19936;-71
2023/05/20 09:23:06;;;;;;;;;;;17.90;95.00;;;;;;5026391;28;20055;-71
2023/05/20 09:25:32;;;;;;;;;;;17.90;96.60;;;;;;5037234;28;19924;-71
2023/05/20 09:27:57;;;;;;;;;;;18.10;96.70;;;;;;5028750;28;19929;-71
2023/05/20 09:30:23;;;;;;;;;;;18.10;95.70;;;;;;5031835;28;20008;-70
2023/05/20 09:32:56;;;;;;;;;;;18.20;96.10;;;;;;5022754;28;20390;-71
2023/05/20 09:35:22;;;;;;;;;;;18.20;95.90;;;;;;5029878;28;19944;-71
2023/05/20 09:37:51;;;;;;;;;;;18.20;95.20;;;;;;5035143;28;19935;-71
2023/05/20 09:40:20;;;;;;;;;;;18.30;95.30;;;;;;5023730;28;19925;-71
2023/05/20 09:42:55;;;;;;;;;;;18.20;94.30;;;;;;5031566;28;19925;-71
2023/05/20 09:45:21;;;;;;;;;;;18.20;95.00;;;;;;5030926;28;19921;-71
2023/05/20 09:47:49;;;;;;;;;;;18.30;95.30;;;;;;5034284;28;20000;-71
2023/05/20 09:50:15;;;;;;;;;;;18.50;94.90;;;;;;5034918;28;19921;-71
2023/05/20 09:52:42;;;;;;;;;;;18.90;95.90;;;;;;5031830;28;19967;-71
2023/05/20 09:55:09;;;;;;;;;;;18.80;94.20;;;;;;5031544;28;19941;-71
2023/05/20 09:57:35;;;;;;;;;;;18.90;94.10;;;;;;5024591;28;19929;-71
2023/05/20 10:00:01;;;;;;;;;;;18.70;92.50;;;;;;5034103;28;20026;-72
2023/05/20 10:02:27;;;;;;;;;;;18.70;93.90;;;;;;5032872;28;20387;-71
2023/05/20 10:04:54;;;;;;;;;;;19.00;95.10;;;;;;5028627;28;19925;-72
2023/05/20 10:07:41;;;;;;;;;;;19.10;94.30;;;;;;5020550;28;19925;-71
2023/05/20 10:10:16;;;;;;;;;;;19.20;93.50;;;;;;5027700;28;19921;-71
2023/05/20 10:12:50;;;;;;;;;;;19.00;93.50;;;;;;5023571;28;19925;-69
2023/05/20 10:15:21;;;;;;;;;;;18.70;93.00;;;;;;5030063;28;19983;-69
2023/05/20 10:17:52;;;;;;;;;;;18.90;95.00;;;;;;5038474;28;19935;-69
2023/05/20 10:20:17;;;;;;;;;;;19.10;93.60;;;;;;5031128;28;20311;-68
2023/05/20 10:22:53;;;;;;;;;;;19.40;94.10;;;;;;5031860;28;19921;-71
2023/05/20 10:25:28;;;;;;;;;;;19.70;94.40;;;;;;5043664;28;19932;-68
2023/05/20 10:28:23;;;;;;;;;;;20.00;93.10;;;;;;5036944;28;20456;-69
2023/05/20 10:30:49;;;;;;;;;;;19.90;93.20;;;;;;4989593;28;19925;-69
2023/05/20 10:33:16;;;;;;;;;;;19.20;91.30;;;;;;5027284;28;19921;-67
2023/05/20 10:35:46;;;;;;;;;;;19.20;91.20;;;;;;5025283;28;20387;-67
2023/05/20 10:38:12;;;;;;;;;;;19.10;90.60;;;;;;5030229;28;19926;-69
2023/05/20 10:40:37;;;;;;;;;;;19.10;91.40;;;;;;5033059;28;20008;-67
2023/05/20 10:43:12;;;;;;;;;;;19.10;90.80;;;;;;5032981;28;19963;-67
2023/05/20 10:45:48;;;;;;;;;;;19.00;91.60;;;;;;5032479;28;19924;-67
2023/05/20 10:48:24;;;;;;;;;;;19.00;91.50;;;;;;5030512;28;19921;-66
2023/05/20 10:50:52;;;;;;;;;;;18.90;91.40;;;;;;5034165;28;19956;-66
2023/05/20 10:53:20;;;;;;;;;;;18.90;92.00;;;;;;5025111;28;19929;-66
2023/05/20 10:55:52;;;;;;;;;;;19.10;91.80;;;;;;5036042;28;19925;-67
2023/05/20 10:58:20;;;;;;;;;;;19.20;92.20;;;;;;5034752;28;19932;-67
2023/05/20 11:00:46;;;;;;;;;;;19.30;92.30;;;;;;5035498;28;20047;-67
2023/05/20 11:03:13;;;;;;;;;;;18.90;90.50;;;;;;5032682;28;20018;-67
2023/05/20 11:05:39;;;;;;;;;;;18.80;90.70;;;;;;5031706;28;19947;-67
2023/05/20 11:08:08;;;;;;;;;;;19.00;90.80;;;;;;5019751;28;20736;-67
2023/05/20 11:10:34;;;;;;;;;;;19.20;91.40;;;;;;5032168;28;19944;-67
2023/05/20 11:13:00;;;;;;;;;;;19.70;92.20;;;;;;5034235;28;20280;-67
2023/05/20 11:15:25;;;;;;;;;;;19.90;90.40;;;;;;5034607;28;19928;-67
2023/05/20 11:17:54;;;;;;;;;;;19.90;90.10;;;;;;5030475;28;19932;-67
2023/05/20 11:20:23;;;;;;;;;;;20.20;90.50;;;;;;5036567;28;20008;-67
2023/05/20 11:22:52;;;;;;;;;;;20.10;87.80;;;;;;5034316;28;20394;-70
2023/05/20 11:25:18;;;;;;;;;;;20.00;89.10;;;;;;5048798;28;19924;-70
2023/05/20 11:27:44;;;;;;;;;;;19.90;89.40;;;;;;5060157;28;19979;-69
2023/05/20 11:30:17;;;;;;;;;;;20.10;90.40;;;;;;5032221;28;20399;-69
2023/05/20 11:32:43;;;;;;;;;;;20.30;90.80;;;;;;5033835;28;19921;-69
2023/05/20 11:35:22;;;;;;;;;;;20.10;88.50;;;;;;5031600;28;19921;-69
2023/05/20 11:38:00;;;;;;;;;;;20.10;88.50;;;;;;5033230;28;19924;-70
2023/05/20 11:40:26;;;;;;;;;;;20.40;90.50;;;;;;5030462;28;19925;-69
2023/05/20 11:42:56;;;;;;;;;;;20.50;90.50;;;;;;5029765;28;19925;-71
2023/05/20 11:45:22;;;;;;;;;;;20.10;89.90;;;;;;5032446;28;19925;-67
2023/05/20 11:48:07;;;;;;;;;;;20.30;90.60;;;;;;5054493;28;19963;-67
2023/05/20 11:50:40;;;;;;;;;;;20.60;90.10;;;;;;5039518;28;19921;-69
2023/05/20 11:53:07;;;;;;;;;;;21.00;90.10;;;;;;5031502;28;19982;-67
2023/05/20 11:55:33;;;;;;;;;;;20.90;83.90;;;;;;5031774;28;19921;-70
2023/05/20 11:57:59;;;;;;;;;;;20.90;88.50;;;;;;5038570;28;19933;-70
2023/05/20 12:00:25;;;;;;;;;;;20.80;85.90;;;;;;5035175;28;19936;-68
2023/05/20 12:02:50;;;;;;;;;;;21.00;88.70;;;;;;5022141;28;19921;-74
2023/05/20 12:05:16;;;;;;;;;;;20.80;87.40;;;;;;5027559;28;19983;-70
2023/05/20 12:07:42;;;;;;;;;;;21.00;90.30;;;;;;5036970;28;19928;-71
2023/05/20 12:10:08;;;;;;;;;;;20.90;89.50;;;;;;5035765;28;19928;-69
2023/05/20 12:12:35;;;;;;;;;;;21.00;89.60;;;;;;5033629;28;19928;-69
2023/05/20 12:15:01;;;;;;;;;;;21.00;87.50;;;;;;5035042;28;20374;-71
2023/05/20 12:17:27;;;;;;;;;;;20.60;85.60;;;;;;5036807;28;19933;-69
2023/05/20 12:19:52;;;;;;;;;;;20.50;84.40;;;;;;5027664;28;19920;-70
2023/05/20 12:22:18;;;;;;;;;;;20.90;90.20;;;;;;5033870;28;19944;-70
2023/05/20 12:24:43;;;;;;;;;;;21.00;89.40;;;;;;5031041;28;19985;-69
2023/05/20 12:27:09;;;;;;;;;;;21.00;86.40;;;;;;5032374;28;19928;-69
2023/05/20 12:29:34;;;;;;;;;;;20.70;86.50;;;;;;5029513;28;20027;-69
2023/05/20 12:32:00;;;;;;;;;;;20.70;85.70;;;;;;5036439;28;19927;-69
2023/05/20 12:34:25;;;;;;;;;;;21.00;87.50;;;;;;5034549;28;19968;-70
2023/05/20 12:36:51;;;;;;;;;;;21.20;86.90;;;;;;5049767;28;20448;-69
2023/05/20 12:39:17;;;;;;;;;;;20.70;83.60;;;;;;5038446;28;19921;-70
2023/05/20 12:41:43;;;;;;;;;;;21.00;84.30;;;;;;5030716;28;19925;-69
2023/05/20 12:44:08;;;;;;;;;;;21.30;81.90;;;;;;5034112;28;19925;-69
2023/05/20 12:46:36;;;;;;;;;;;21.70;85.70;;;;;;5034541;28;20355;-69
2023/05/20 12:49:02;;;;;;;;;;;21.40;83.10;;;;;;5036177;28;19920;-70
2023/05/20 12:51:28;;;;;;;;;;;21.10;83.80;;;;;;5032245;28;20406;-70
2023/05/20 12:53:53;;;;;;;;;;;21.20;84.10;;;;;;5027929;28;19925;-68
2023/05/20 12:56:20;;;;;;;;;;;21.50;83.30;;;;;;5031525;28;20364;-69
2023/05/20 12:58:45;;;;;;;;;;;21.20;83.90;;;;;;5028694;28;19925;-68
2023/05/20 13:01:10;;;;;;;;;;;21.50;85.70;;;;;;5032719;28;19996;-68
2023/05/20 13:03:36;;;;;;;;;;;22.00;84.40;;;;;;5029854;28;19921;-69
2023/05/20 13:06:02;;;;;;;;;;;22.10;87.70;;;;;;5033159;28;19928;-69
2023/05/20 13:08:28;;;;;;;;;;;22.50;85.20;;;;;;5023520;28;19921;-70
2023/05/20 13:10:53;;;;;;;;;;;22.60;83.00;;;;;;5029027;28;20294;-69
2023/05/20 13:13:20;;;;;;;;;;;22.20;79.40;;;;;;5030680;28;19975;-69
2023/05/20 13:15:49;;;;;;;;;;;22.00;81.80;;;;;;5027471;28;19975;-68
2023/05/20 13:18:15;;;;;;;;;;;21.70;81.90;;;;;;5035210;28;19990;-69
2023/05/20 13:20:43;;;;;;;;;;;21.50;81.40;;;;;;5034466;28;19921;-69
2023/05/20 13:23:09;;;;;;;;;;;21.70;83.10;;;;;;5030481;28;19924;-69
2023/05/20 13:25:35;;;;;;;;;;;22.20;80.00;;;;;;5030548;28;19921;-68
2023/05/20 13:28:01;;;;;;;;;;;21.80;79.30;;;;;;5029844;28;20008;-70
2023/05/20 13:30:27;;;;;;;;;;;21.90;85.10;;;;;;5032247;28;20012;-69
2023/05/20 13:32:53;;;;;;;;;;;22.40;82.00;;;;;;5029009;28;19921;-67
2023/05/20 13:35:18;;;;;;;;;;;22.00;80.50;;;;;;5031583;28;19925;-67
2023/05/20 13:37:44;;;;;;;;;;;21.80;83.20;;;;;;5030251;28;19925;-65
2023/05/20 13:40:10;;;;;;;;;;;21.80;81.80;;;;;;5032195;28;20367;-67
2023/05/20 13:42:35;;;;;;;;;;;21.70;82.00;;;;;;5033449;28;19928;-67
2023/05/20 13:45:01;;;;;;;;;;;21.40;82.60;;;;;;5029048;28;20041;-67
2023/05/20 13:47:26;;;;;;;;;;;21.70;82.60;;;;;;5024664;28;20444;-66
2023/05/20 13:49:52;;;;;;;;;;;22.00;82.80;;;;;;5029823;28;19920;-67
2023/05/20 13:52:17;;;;;;;;;;;21.70;79.40;;;;;;5030635;28;19921;-68
2023/05/20 13:54:45;;;;;;;;;;;21.30;80.90;;;;;;5034753;28;19925;-66
2023/05/20 13:57:10;;;;;;;;;;;21.00;80.00;;;;;;5045265;28;19925;-66
2023/05/20 13:59:36;;;;;;;;;;;20.90;80.90;;;;;;5028878;28;19928;-66
2023/05/20 14:02:02;;;;;;;;;;;20.50;81.00;;;;;;5031279;28;19983;-66
2023/05/20 14:04:27;;;;;;;;;;;20.40;81.40;;;;;;5029814;28;20387;-66
2023/05/20 14:06:53;;;;;;;;;;;20.30;81.60;;;;;;5032982;28;20295;-66
2023/05/20 14:09:18;;;;;;;;;;;20.30;82.40;;;;;;5030231;28;19929;-66
2023/05/20 14:11:44;;;;;;;;;;;20.30;81.90;;;;;;5030518;28;19985;-68